Terminal Aerodrome Forecast
Issued by NWS

Home | Current Version | Previous Version | Text Only | Print | Product List | Glossary On
Versions: 1 2 3 4 5 6 7 8 9 10 11 12 13 14
000
FTUS45 KGGW 250500
TAFSDY
TAF
KSDY 250520Z 2506/2606 29011KT P6SM SCT035 BKN250
     FM251500 25009KT P6SM SCT035 BKN120
     FM260000 27016KT P6SM BKN100
      AMD LTD TO CLD VIS AND WIND=

USA.gov is the U.S. government's official web portal to all federal, state and local government web resources and services.